Home > Products > Valid Products > TAF

000
FTUS43 KEAX 221100
TAFMKC
TAF
KMKC 221134Z 2212/2312 14008KT 5SM -RADZ BR OVC008
     FM221400 17011KT 3SM -RA BR SCT004 OVC007
     FM222300 26011KT 6SM -RA BR SCT006 OVC009
     FM230300 24011KT 6SM BR SCT015 OVC020=



000
FTUS43 KEAX 221100
TAFMCI
TAF
KMCI 221134Z 2212/2312 15012KT 4SM -RADZ BR OVC008
      TEMPO 2212/2215 2SM -RA BR
     FM221500 17014KT 3SM -RA BR SCT004 OVC006
     FM222300 26012KT 6SM -RA BR SCT004 OVC006
     FM230300 24011KT 6SM BR SCT015 OVC020=



000
FTUS43 KEAX 221100
TAFSTJ
TAF
KSTJ 221134Z 2212/2312 15011KT 6SM -RADZ OVC008
      TEMPO 2212/2213 5SM -RA BR BKN011
     FM222100 28010KT 3SM -RA BR OVC010
     FM230200 29012KT 6SM BR OVC025=



000
FTUS43 KEAX 221000 AAC
TAFMKC
TAF AMD
KMKC 221013Z 2210/2306 15011KT P6SM -DZ SCT010 OVC022
      TEMPO 2210/2212 4SM -SHRA BKN012
     FM221200 18012G22KT 3SM -RA BR OVC008
     FM221900 24011KT 6SM BR OVC025=



000
FTUS43 KEAX 220800 AAB
TAFMKC
TAF AMD
KMKC 220836Z 2209/2306 15011KT P6SM -DZ SCT010 OVC022
      TEMPO 2210/2212 4SM -SHRA BKN006
     FM221200 18012G22KT 3SM -RA BR OVC008
     FM221900 24011KT 6SM BR OVC025=



000
FTUS43 KEAX 220700 AAA
TAFMKC
TAF AMD
KMKC 220732Z 2208/2306 15011KT P6SM SCT010 BKN025
      TEMPO 2208/2211 4SM -DZ BKN006
     FM221200 18012G22KT 3SM -RA BR OVC008
     FM221900 24011KT 6SM BR OVC025=



000
FTUS43 KEAX 220700 AAA
TAFMKC
TAF AMD
KMKC 220732Z 2208/2306 15011KT P6SM SCT010 BKN025
      TEMPO 2208/2211 4SM -DZ BKN006
     FM221200 18012G22KT 3SM -RA BR OVC008
     FM221900 24011KT 6SM BR OVC025=



000
FTUS43 KEAX 220700 AAA
TAFMCI
TAF AMD
KMCI 220730Z 2208/2306 16014KT P6SM OVC015
      TEMPO 2208/2210 4SM -DZ BKN006
     FM221100 17012G20KT 3SM -RA BR OVC008
     FM222000 23011KT 6SM BR OVC025=



000
FTUS43 KEAX 220500
TAFMKC
TAF
KMKC 220520Z 2206/2306 17013G23KT P6SM VCSH OVC010
      TEMPO 2207/2210 4SM -DZ BKN006
     FM221200 18012G22KT 3SM -RA BR OVC008
     FM221900 24011KT 6SM BR OVC025=



000
FTUS43 KEAX 220500
TAFMCI
TAF
KMCI 220520Z 2206/2306 17014G23KT P6SM VCSH OVC012
      TEMPO 2207/2210 4SM -DZ BKN006
     FM221100 17012G20KT 3SM -RA BR OVC008
     FM222000 23011KT 6SM BR OVC025=



000
FTUS43 KEAX 220500
TAFSTJ
TAF
KSTJ 220520Z 2206/2306 16014KT P6SM VCSH OVC012
      TEMPO 2206/2209 4SM -DZ BKN006
     FM221000 17012G22KT 3SM -RA BR OVC010
     FM222000 23011KT 6SM BR OVC025=



000
FTUS43 KEAX 220400 AAA
TAFMKC
TAF AMD
KMKC 220447Z 2205/2224 17014G23KT P6SM VCSH SCT010 OVC025
      TEMPO 2206/2209 5SM -DZ BKN008
     FM220900 18012G22KT 3SM -RA BR OVC008
     FM221700 21011KT 6SM BR OVC025=



000
FTUS43 KEAX 220400 AAA
TAFMCI
TAF AMD
KMCI 220443Z 2205/2224 16013KT P6SM VCSH OVC012
      TEMPO 2205/2206 5SM -DZ BKN008
     FM220900 19012G20KT 3SM -RA BR OVC008
     FM221700 22011KT 6SM BR OVC025=



000
FTUS43 KEAX 220400 AAA
TAFSTJ
TAF AMD
KSTJ 220416Z 2204/2224 16014KT P6SM VCSH OVC012
      TEMPO 2204/2207 4SM -DZ BKN008
     FM220900 19012G22KT 3SM -RA BR OVC010
     FM221800 24011KT 6SM BR OVC025=



000
FTUS43 KEAX 212300
TAFMKC
TAF
KMKC 212324Z 2200/2224 18010KT P6SM OVC012
     FM220200 17014G23KT P6SM VCSH OVC010
      TEMPO 2203/2206 5SM -DZ BKN008
     FM220900 18012G22KT 3SM -RA BR OVC008
     FM221700 21011KT 6SM BR OVC025=



000
FTUS43 KEAX 212300
TAFMCI
TAF
KMCI 212324Z 2200/2224 18012KT P6SM OVC012
     FM220200 17015G23KT P6SM VCSH OVC010
      TEMPO 2203/2206 5SM -DZ BKN008
     FM220900 19012G20KT 3SM -RA BR OVC008
     FM221700 22011KT 6SM BR OVC025=



000
FTUS43 KEAX 212300
TAFSTJ
TAF
KSTJ 212324Z 2200/2224 18011KT P6SM OVC015
     FM220200 16014G22KT P6SM VCSH OVC010
      TEMPO 2203/2206 4SM -DZ BKN008
     FM220900 19012G22KT 3SM -RA BR OVC010
     FM221800 24011KT 6SM BR OVC025=



000
FTUS43 KEAX 212100 AAB
TAFMCI
TAF AMD
KMCI 212146Z 2122/2218 18012KT P6SM OVC035
      TEMPO 2122/2124 BKN015
     FM220200 17016G24KT P6SM VCSH OVC014
     FM220900 19014G23KT 5SM -RA BR OVC012=



000
FTUS43 KEAX 212100 AAB
TAFMKC
TAF AMD
KMKC 212146Z 2122/2218 18010KT P6SM OVC035
      TEMPO 2122/2123 BKN018
     FM220200 17014G23KT P6SM VCSH OVC015
     FM220900 19012G22KT 5SM -RA BR OVC012=



000
FTUS43 KEAX 212100 AAB
TAFMKC
TAF AMD
KMKC 212146Z 2122/2218 18010KT P6SM OVC035
      TEMPO 2122/2123 BKN018
     FM220200 17014G23KT P6SM VCSH OVC015
     FM220900 19012G22KT 5SM -RA BR OVC012=



000
FTUS43 KEAX 212100 AAB
TAFMCI
TAF AMD
KMCI 212146Z 2122/2218 18012KT P6SM OVC035
      TEMPO 2122/2124 BKN015
     FM220200 17016G24KT P6SM VCSH OVC014
     FM220900 19014G23KT 5SM -RA BR OVC012=



000
FTUS43 KEAX 211900 AAA
TAFMKC
TAF AMD
KMKC 211910Z 2119/2218 18010KT P6SM BKN018
      TEMPO 2119/2122 OVC035
     FM220200 17014G23KT P6SM VCSH OVC015
     FM220900 19012G22KT 5SM -RA BR OVC012=



000
FTUS43 KEAX 211900 AAA
TAFMCI
TAF AMD
KMCI 211908Z 2119/2218 18012KT P6SM OVC015
      TEMPO 2119/2122 OVC035
     FM220200 17016G24KT P6SM VCSH OVC014
     FM220900 19014G23KT 5SM -RA BR OVC012=



000
FTUS43 KEAX 211700
TAFSTJ
TAF
KSTJ 211723Z 2118/2218 18011KT P6SM OVC015
     FM220200 16014G22KT P6SM VCSH OVC015
     FM220900 19012G22KT 5SM -RA BR OVC012=



000
FTUS43 KEAX 211700
TAFMKC
TAF
KMKC 211723Z 2118/2218 18010KT P6SM OVC018
      TEMPO 2118/2120 6SM -DZ BKN009
     FM220200 17014G23KT P6SM VCSH OVC015
     FM220900 19012G22KT 5SM -RA BR OVC012=



000
FTUS43 KEAX 211700
TAFMCI
TAF
KMCI 211723Z 2118/2218 18011KT P6SM OVC015
      TEMPO 2118/2120 6SM -DZ BKN008
     FM220200 17016G24KT P6SM VCSH OVC014
     FM220900 19014G23KT 5SM -RA BR OVC012=



000
FTUS43 KEAX 211500 AAA
TAFMKC
TAF AMD
KMKC 211519Z 2115/2212 19009KT 6SM BR OVC009
      TEMPO 2115/2118 OVC013
     FM211800 18011KT P6SM OVC022
     FM220200 17011KT P6SM OVC017
     FM220900 17014KT 5SM -RA BR OVC012=



000
FTUS43 KEAX 211100
TAFMCI
TAF
KMCI 211120Z 2112/2212 19011KT 6SM BR OVC022
     FM211300 18012KT P6SM OVC015
     FM220300 17016G23KT P6SM VCSH OVC015
     FM220800 17017G24KT 5SM -RA BR OVC012=



000
FTUS43 KEAX 211100
TAFMKC
TAF
KMKC 211120Z 2112/2212 19009KT P6SM OVC016
     FM211800 18011KT P6SM OVC022
     FM220200 17011KT P6SM OVC017
     FM220900 17014KT 5SM -RA BR OVC012=



000
FTUS43 KEAX 211100
TAFSTJ
TAF
KSTJ 211120Z 2112/2212 17009KT P6SM OVC022
     FM211300 18012KT P6SM OVC015
     FM220600 17015KT 5SM -RA BR OVC012=



000
FTUS43 KEAX 210500
TAFMCI
TAF
KMCI 210520Z 2106/2206 18008KT 6SM BR SCT022 BKN150
     FM211000 18009KT 5SM BR BKN022
     FM211200 18010KT 2SM BR OVC012
     FM211600 19012KT 5SM BR OVC020=



000
FTUS43 KEAX 210500
TAFMKC
TAF
KMKC 210520Z 2106/2206 18007KT 6SM BR SCT025 BKN150
     FM211000 18009KT 5SM BR BKN025
     FM211200 18008KT 3SM BR OVC012
     FM211600 19010KT 5SM BR OVC020=



000
FTUS43 KEAX 210500
TAFSTJ
TAF
KSTJ 210520Z 2106/2206 18008KT 6SM BR BKN035
     FM211000 18009KT 5SM BR BKN025
     FM211300 18010KT 2SM BR OVC012
     FM211700 19012KT 5SM BR OVC020=



000
FTUS43 KEAX 202300
TAFMCI
TAF
KMCI 202321Z 2100/2124 18008KT P6SM OVC022
     FM211300 18010KT 2SM BR OVC007
     FM211600 19012KT 5SM BR OVC012=



000
FTUS43 KEAX 202300
TAFSTJ
TAF
KSTJ 202321Z 2100/2124 20005KT P6SM OVC025
     FM211400 18010KT 2SM BR OVC007
     FM211700 19012KT 5SM BR OVC012=



000
FTUS43 KEAX 202300
TAFMKC
TAF
KMKC 202321Z 2100/2124 18007KT P6SM OVC022
     FM211300 18008KT 3SM BR OVC009
     FM211600 19010KT 5SM BR OVC015=



000
FTUS43 KEAX 202100 AAB
TAFMCI
TAF AMD
KMCI 202100Z 2021/2118 20010KT P6SM OVC020
     FM210800 19010KT 2SM BR OVC005
     FM211500 19012KT 5SM BR OVC030=



000
FTUS43 KEAX 201900 AAA
TAFSTJ
TAF AMD
KSTJ 201916Z 2019/2118 20008KT P6SM OVC015
     FM210800 19010KT 2SM BR OVC004
     FM211500 19012KT 5SM BR OVC030=



000
FTUS43 KEAX 201900 AAA
TAFMKC
TAF AMD
KMKC 201914Z 2019/2118 20008KT P6SM OVC022
     FM210800 19005KT 3SM BR OVC006
     FM211500 19008KT 5SM BR OVC030=



000
FTUS43 KEAX 201900 AAA
TAFMCI
TAF AMD
KMCI 201913Z 2019/2118 21012KT P6SM OVC018
     FM210800 19010KT 2SM BR OVC005
     FM211500 19012KT 5SM BR OVC030=



000
FTUS43 KEAX 201700
TAFSTJ
TAF
KSTJ 201734Z 2018/2118 18008KT P6SM BKN020
      TEMPO 2018/2022 FEW020
     FM210800 19010KT 2SM BR OVC004
     FM211500 19012KT 5SM BR OVC030=



000
FTUS43 KEAX 201700
TAFMCI
TAF
KMCI 201734Z 2018/2118 19012KT P6SM BKN020
      TEMPO 2018/2022 FEW020
     FM210800 19010KT 2SM BR OVC005
     FM211500 19012KT 5SM BR OVC030=



000
FTUS43 KEAX 201700
TAFMKC
TAF
KMKC 201734Z 2018/2118 18008KT P6SM BKN025
      TEMPO 2018/2022 FEW030
     FM210800 19005KT 3SM BR OVC006
     FM211500 19008KT 5SM BR OVC030=



000
FTUS43 KEAX 201400 AAB
TAFSTJ
TAF AMD
KSTJ 201454Z 2015/2112 18006KT P6SM SCT020
     FM202000 18006KT P6SM SCT025 OVC250
     FM210700 18005KT 4SM BR OVC250=



000
FTUS43 KEAX 201400 AAB
TAFMKC
TAF AMD
KMKC 201449Z 2015/2112 19010KT 6SM BR SCT015
     FM201900 20006KT P6SM SCT025 OVC250
     FM210600 19006KT P6SM SCT100 OVC250=



000
FTUS43 KEAX 201400 AAB
TAFMCI
TAF AMD
KMCI 201445Z 2015/2112 18010KT 6SM BR SCT015
     FM201900 19008KT P6SM SCT015 OVC250
     FM210600 18009KT 5SM BR SCT100 OVC250=



000
FTUS43 KEAX 201300 AAA
TAFMKC
TAF AMD
KMKC 201334Z 2014/2112 21004KT P6SM OVC018
      TEMPO 2015/2019 SCT020
     FM201900 20006KT P6SM SCT025 OVC250
     FM210600 19006KT P6SM SCT100 OVC250=



000
FTUS43 KEAX 201300 AAA
TAFMCI
TAF AMD
KMCI 201331Z 2014/2112 18007KT 5SM BR OVC012
      TEMPO 2014/2017 SCT015
     FM201900 19008KT P6SM SCT015 OVC250
     FM210600 18009KT 5SM BR SCT100 OVC250=



000
FTUS43 KEAX 201300 AAA
TAFSTJ
TAF AMD
KSTJ 201330Z 2014/2112 17006KT P6SM OVC015
      TEMPO 2014/2017 SCT020
     FM202000 18006KT P6SM SCT025 OVC250
     FM210700 18005KT 4SM BR OVC250=



000
FTUS43 KEAX 201100
TAFMKC
TAF
KMKC 201120Z 2012/2112 21004KT P6SM OVC018
     FM201900 20006KT P6SM SCT025 OVC250
     FM210600 19006KT P6SM SCT100 OVC250=



000
FTUS43 KEAX 201100
TAFSTJ
TAF
KSTJ 201120Z 2012/2112 17006KT P6SM OVC015
     FM202000 18006KT P6SM SCT025 OVC250
     FM210700 18005KT 4SM BR OVC250=



000
FTUS43 KEAX 201100
TAFMCI
TAF
KMCI 201120Z 2012/2112 18007KT 5SM BR OVC012
     FM201900 19008KT P6SM SCT015 OVC250
     FM210600 18009KT 5SM BR SCT100 OVC250=



000
FTUS43 KEAX 200500
TAFMCI
TAF
KMCI 200526Z 2006/2106 22005KT 2SM BR OVC005
     FM201500 19007KT 5SM BR OVC008=



000
FTUS43 KEAX 200500
TAFSTJ
TAF
KSTJ 200526Z 2006/2106 23005KT 5SM BR OVC008
     FM201500 20007KT P6SM BKN010=



000
FTUS43 KEAX 200500
TAFMKC
TAF
KMKC 200526Z 2006/2106 22004KT 3SM BR OVC005
     FM201500 19007KT 5SM BR OVC008
     FM202000 20007KT P6SM BKN015=



000
FTUS43 KEAX 192300
TAFMKC
TAF
KMKC 192321Z 2000/2024 23004KT 5SM BR OVC012
     FM200200 VRB03KT 3SM BR OVC008
     FM200500 VRB03KT 2SM BR OVC005
     FM201600 18007KT 4SM BR OVC008=



000
FTUS43 KEAX 192300
TAFSTJ
TAF
KSTJ 192321Z 2000/2024 22004KT 5SM BR OVC007
     FM200500 VRB03KT 1SM BR OVC004
     FM201500 18007KT 4SM BR OVC005=



000
FTUS43 KEAX 192300
TAFMCI
TAF
KMCI 192321Z 2000/2024 24004KT 5SM BR OVC010
     FM200100 VRB03KT 4SM BR OVC008
     FM200500 VRB03KT 2SM BR OVC004
     FM201600 18007KT 4SM BR OVC006=



000
FTUS43 KEAX 192000 AAA
TAFMCI
TAF AMD
KMCI 192008Z 1920/2018 17005KT 5SM BR OVC005
      TEMPO 1920/1924 3SM BR OVC012
     FM200500 18005KT 1SM BR OVC004
     FM201500 18007KT 4SM BR OVC005=



000
FTUS43 KEAX 192000 AAA
TAFMCI
TAF AMD
KMCI 192008Z 1920/2018 17005KT 5SM BR OVC005
      TEMPO 1920/1924 3SM BR OVC012
     FM200500 18005KT 1SM BR OVC004
     FM201500 18007KT 4SM BR OVC005=



000
FTUS43 KEAX 191700
TAFMKC
TAF
KMKC 191720Z 1918/2018 17004KT 6SM BR OVC007
      TEMPO 1920/1924 OVC015
     FM200600 18005KT 3SM BR OVC005
     FM201500 18007KT 4SM BR OVC008=



000
FTUS43 KEAX 191700
TAFMCI
TAF
KMCI 191720Z 1918/2018 17005KT 6SM BR OVC005
      TEMPO 1920/1924 OVC012
     FM200500 18005KT 1SM BR OVC004
     FM201500 18007KT 4SM BR OVC005=



000
FTUS43 KEAX 191700
TAFSTJ
TAF
KSTJ 191720Z 1918/2018 17005KT 6SM BR OVC006
      TEMPO 1920/1922 OVC010
     FM200500 18005KT 1SM BR OVC003
     FM201500 18007KT 4SM BR OVC005=



    US Dept of Commerce
    National Oceanic and Atmospheric Administration
    National Weather Service
    1325 East West Highway
    Silver Spring, MD 20910
    Page Author: NWS Internet Services Team
Disclaimer
Information Quality
Credits
Glossary
Privacy Policy
Freedom of Information Act (FOIA)
About Us
Career Opportunities